Manitou, Minnesota
Current Conditions -  °F | °C
As of 4:53 AM on Friday 24 Oct 2014 (Local Time) from KBDE Reporting Station
Few Clouds Few Clouds  
Wind Chill: 52°   Ceiling: Unl
Heat Index: 52°   Visibility: 10mi
Dew Point: 41°   Wind: 3mph
Humidity: 66%   Direction: 150°SSE
Pressure: 29.73"   Gusts: NA
Location:  48.6069°N, 94.172°W
Report Text: KBDE 240953Z AUTO 15003KT 10SM FEW120 11/05 A2973 RMK AO2 SLP069 T01110050 TSNO
Loading
Personal Weather Stations






























Interactive Weather Map
Tropical Storm Tracking
New forecast layout! Learn more

10-Day Weather Forecast

Advertisements
Track Severe Weather on mobile